createdAt,value
2017-07-10T00:00:11.265Z,0
2017-07-10T00:01:11.959Z,0
2017-07-10T00:02:12.456Z,0
2017-07-10T00:03:10.821Z,0
2017-07-10T00:04:10.971Z,0
2017-07-10T00:05:10.576Z,0
2017-07-10T00:06:11.708Z,0
2017-07-10T00:07:12.124Z,0
2017-07-10T00:08:11.470Z,0
2017-07-10T00:09:11.271Z,0
2017-07-10T00:10:10.878Z,0
2017-07-10T00:11:11.080Z,0
2017-07-10T00:12:11.301Z,0
2017-07-10T00:13:11.690Z,0
2017-07-10T00:14:10.546Z,0
2017-07-10T00:15:11.318Z,0
2017-07-10T00:16:11.161Z,0
2017-07-10T00:17:11.625Z,0
2017-07-10T00:18:11.354Z,0
2017-07-10T00:19:11.163Z,0
2017-07-10T00:20:10.878Z,0
2017-07-10T00:21:11.522Z,0
2017-07-10T00:22:11.455Z,0
2017-07-10T00:23:12.061Z,0
2017-07-10T00:24:10.438Z,0
2017-07-10T00:25:10.864Z,0
2017-07-10T00:26:11.330Z,0
2017-07-10T00:27:11.769Z,0
2017-07-10T00:28:10.577Z,0
2017-07-10T00:29:10.956Z,0
2017-07-10T00:30:10.855Z,0
2017-07-10T00:31:10.808Z,0
2017-07-10T00:32:11.815Z,0
2017-07-10T00:33:12.005Z,0
2017-07-10T00:34:11.265Z,0
2017-07-10T00:35:11.499Z,0
2017-07-10T00:36:11.832Z,0
2017-07-10T00:37:12.134Z,0
2017-07-10T00:38:11.555Z,0
2017-07-10T00:39:10.752Z,0
2017-07-10T00:40:10.887Z,0
2017-07-10T00:41:10.883Z,0
2017-07-10T00:42:11.202Z,0
2017-07-10T00:43:12.206Z,0
2017-07-10T00:44:11.821Z,0
2017-07-10T00:45:10.839Z,0
2017-07-10T00:46:10.814Z,0
2017-07-10T00:47:10.883Z,0
2017-07-10T00:48:10.594Z,0
2017-07-10T00:49:11.600Z,0
2017-07-10T00:50:12.504Z,0
2017-07-10T00:51:11.100Z,0
2017-07-10T00:52:11.306Z,0
2017-07-10T00:53:10.458Z,0
2017-07-10T00:54:10.560Z,0
2017-07-10T00:55:11.113Z,0
2017-07-10T00:56:10.745Z,0
2017-07-10T00:57:11.958Z,0
2017-07-10T00:58:11.503Z,0
2017-07-10T00:59:10.826Z,0
2017-07-10T01:00:11.412Z,0
2017-07-10T01:01:10.492Z,0
2017-07-10T01:02:11.478Z,0
2017-07-10T01:03:11.207Z,0
2017-07-10T01:04:10.500Z,0
2017-07-10T01:05:11.492Z,0
2017-07-10T01:06:10.463Z,0
2017-07-10T01:07:11.159Z,0
2017-07-10T01:08:11.140Z,0
2017-07-10T01:09:10.825Z,0
2017-07-10T01:10:10.875Z,0
2017-07-10T01:11:11.842Z,0
2017-07-10T01:12:11.897Z,0
2017-07-10T01:13:10.506Z,0
2017-07-10T01:14:12.418Z,0
2017-07-10T01:15:12.466Z,0
2017-07-10T01:16:11.303Z,0
2017-07-10T01:17:11.111Z,0
2017-07-10T01:18:10.927Z,0
2017-07-10T01:19:10.762Z,0
2017-07-10T01:20:11.241Z,0
2017-07-10T01:21:10.916Z,0
2017-07-10T01:22:10.858Z,0
2017-07-10T01:23:11.377Z,0
2017-07-10T01:24:11.616Z,0
2017-07-10T01:25:12.253Z,0
2017-07-10T01:26:10.474Z,0
2017-07-10T01:27:10.525Z,0
2017-07-10T01:28:11.236Z,0
2017-07-10T01:29:10.904Z,0
2017-07-10T01:30:11.481Z,0
2017-07-10T01:31:10.409Z,0
2017-07-10T01:32:11.192Z,0
2017-07-10T01:33:10.960Z,0
2017-07-10T01:34:12.922Z,0
2017-07-10T01:35:10.387Z,0
2017-07-10T01:36:10.509Z,0
2017-07-10T01:37:11.144Z,0
2017-07-10T01:38:11.195Z,0
2017-07-10T01:39:11.723Z,0
2017-07-10T01:40:11.154Z,0
2017-07-10T01:41:11.502Z,0
2017-07-10T01:42:11.288Z,0
2017-07-10T01:43:11.370Z,0
2017-07-10T01:44:11.017Z,0
2017-07-10T01:45:11.639Z,0
2017-07-10T01:46:11.849Z,0
2017-07-10T01:47:11.067Z,0
2017-07-10T01:48:11.459Z,0
2017-07-10T01:49:10.404Z,0
2017-07-10T01:50:10.784Z,0
2017-07-10T01:51:11.581Z,0
2017-07-10T01:52:11.702Z,0
2017-07-10T01:53:11.167Z,0
2017-07-10T01:54:11.190Z,0
2017-07-10T01:55:11.641Z,0
2017-07-10T01:56:11.033Z,0
2017-07-10T01:57:10.814Z,0
2017-07-10T01:58:11.503Z,0
2017-07-10T01:59:10.515Z,0
2017-07-10T02:00:11.918Z,0
2017-07-10T02:01:10.886Z,0
2017-07-10T02:02:10.481Z,0
2017-07-10T02:03:10.494Z,0
2017-07-10T02:04:10.901Z,0
2017-07-10T02:05:11.938Z,0
2017-07-10T02:06:11.566Z,0
2017-07-10T02:07:11.423Z,0
2017-07-10T02:08:11.223Z,0
2017-07-10T02:09:11.225Z,0
2017-07-10T02:10:11.741Z,0
2017-07-10T02:11:11.280Z,0
2017-07-10T02:12:10.505Z,0
2017-07-10T02:13:10.482Z,0
2017-07-10T02:14:11.733Z,0
2017-07-10T02:15:10.863Z,0
2017-07-10T02:16:10.866Z,0
2017-07-10T02:17:10.743Z,0
2017-07-10T02:18:10.872Z,0
2017-07-10T02:19:11.557Z,0
2017-07-10T02:20:11.533Z,0
2017-07-10T02:21:11.116Z,0
2017-07-10T02:22:11.252Z,0
2017-07-10T02:23:10.873Z,0
2017-07-10T02:24:11.779Z,0
2017-07-10T02:25:11.797Z,0
2017-07-10T02:26:10.692Z,0
2017-07-10T02:27:10.720Z,0
2017-07-10T02:28:10.793Z,0
2017-07-10T02:29:10.778Z,0
2017-07-10T02:30:10.923Z,0
2017-07-10T02:31:11.064Z,0
2017-07-10T02:32:11.142Z,0
2017-07-10T02:33:10.364Z,0
2017-07-10T02:34:11.710Z,0
2017-07-10T02:35:10.682Z,0
2017-07-10T02:36:10.707Z,0
2017-07-10T02:37:10.512Z,0
2017-07-10T02:38:11.022Z,0
2017-07-10T02:39:10.740Z,0
2017-07-10T02:40:11.455Z,0
2017-07-10T02:41:11.006Z,0
2017-07-10T02:42:10.555Z,0
2017-07-10T02:43:10.730Z,0
2017-07-10T02:44:11.134Z,0
2017-07-10T02:45:10.741Z,0
2017-07-10T02:46:10.637Z,0
2017-07-10T02:47:11.176Z,0
2017-07-10T02:48:10.363Z,0
2017-07-10T02:49:10.366Z,0
2017-07-10T02:50:10.486Z,0
2017-07-10T02:51:11.078Z,0
2017-07-10T02:52:11.059Z,0
2017-07-10T02:53:11.103Z,0
2017-07-10T02:54:10.652Z,0
2017-07-10T02:55:10.668Z,0
2017-07-10T02:56:10.957Z,0
2017-07-10T02:57:10.687Z,0
2017-07-10T02:58:10.711Z,0
2017-07-10T02:59:11.061Z,0
2017-07-10T03:00:11.015Z,0
2017-07-10T03:01:11.036Z,0
2017-07-10T03:02:10.709Z,0
2017-07-10T03:03:10.320Z,0
2017-07-10T03:04:10.710Z,0
2017-07-10T03:05:10.744Z,0
2017-07-10T03:06:10.682Z,0
2017-07-10T03:07:10.385Z,0
2017-07-10T03:08:10.616Z,0
2017-07-10T03:09:11.410Z,0
2017-07-10T03:10:11.234Z,0
2017-07-10T03:11:11.091Z,0
2017-07-10T03:12:10.955Z,0
2017-07-10T03:13:10.640Z,0
2017-07-10T03:14:10.748Z,0
2017-07-10T03:15:11.047Z,0
2017-07-10T03:16:11.032Z,0
2017-07-10T03:17:11.004Z,0
2017-07-10T03:18:11.426Z,0
2017-07-10T03:19:10.329Z,0
2017-07-10T03:20:10.724Z,0
2017-07-10T03:21:11.115Z,0
2017-07-10T03:22:11.046Z,0
2017-07-10T03:23:10.681Z,0
2017-07-10T03:24:10.642Z,0
2017-07-10T03:25:10.987Z,5
2017-07-10T03:26:11.009Z,5
2017-07-10T03:27:10.641Z,5
2017-07-10T03:28:11.141Z,5
2017-07-10T03:29:10.707Z,5
2017-07-10T03:30:10.709Z,5
2017-07-10T03:31:10.665Z,5
2017-07-10T03:32:10.391Z,10
2017-07-10T03:33:11.654Z,10
2017-07-10T03:34:10.759Z,10
2017-07-10T03:35:10.672Z,10
2017-07-10T03:36:10.617Z,10
2017-07-10T03:37:11.049Z,10
2017-07-10T03:38:10.618Z,10
2017-07-10T03:39:10.616Z,10
2017-07-10T03:40:10.363Z,10
2017-07-10T03:41:11.457Z,10
2017-07-10T03:42:10.627Z,10
2017-07-10T03:43:11.031Z,10
2017-07-10T03:44:11.669Z,10
2017-07-10T03:45:11.063Z,10
2017-07-10T03:46:10.668Z,10
2017-07-10T03:47:11.029Z,10
2017-07-10T03:48:11.003Z,10
2017-07-10T03:49:10.351Z,10
2017-07-10T03:50:10.657Z,10
2017-07-10T03:51:10.675Z,10
2017-07-10T03:52:10.717Z,10
2017-07-10T03:53:10.684Z,10
2017-07-10T03:54:10.271Z,10
2017-07-10T03:55:10.635Z,10
2017-07-10T03:56:10.396Z,10
2017-07-10T03:57:11.031Z,10
2017-07-10T03:58:10.604Z,10
2017-07-10T03:59:10.307Z,10
2017-07-10T04:00:11.344Z,15
2017-07-10T04:01:10.352Z,15
2017-07-10T04:02:10.651Z,20
2017-07-10T04:03:11.087Z,20
2017-07-10T04:04:10.304Z,20
2017-07-10T04:05:10.248Z,20
2017-07-10T04:06:10.397Z,25
2017-07-10T04:07:10.667Z,25
2017-07-10T04:08:10.301Z,25
2017-07-10T04:09:10.593Z,30
2017-07-10T04:10:11.305Z,30
2017-07-10T04:11:10.994Z,30
2017-07-10T04:12:11.314Z,35
2017-07-10T04:13:10.999Z,35
2017-07-10T04:14:10.609Z,35
2017-07-10T04:15:10.584Z,35
2017-07-10T04:16:11.116Z,35
2017-07-10T04:17:11.067Z,30
2017-07-10T04:18:10.968Z,30
2017-07-10T04:19:10.558Z,30
2017-07-10T04:20:11.204Z,30
2017-07-10T04:21:11.036Z,30
2017-07-10T04:22:10.312Z,25
2017-07-10T04:23:10.409Z,25
2017-07-10T04:24:10.732Z,25
2017-07-10T04:25:10.329Z,20
2017-07-10T04:26:10.942Z,25
2017-07-10T04:27:10.668Z,25
2017-07-10T04:28:10.668Z,30
2017-07-10T04:29:10.732Z,35
2017-07-10T04:30:10.290Z,40
2017-07-10T04:31:10.691Z,40
2017-07-10T04:32:10.709Z,45
2017-07-10T04:33:10.570Z,50
2017-07-10T04:34:10.583Z,50
2017-07-10T04:35:10.868Z,55
2017-07-10T04:36:10.554Z,65
2017-07-10T04:37:10.987Z,75
2017-07-10T04:38:11.252Z,80
2017-07-10T04:39:10.587Z,85
2017-07-10T04:40:10.929Z,80
2017-07-10T04:41:10.310Z,75
2017-07-10T04:42:10.704Z,70
2017-07-10T04:43:10.558Z,70
2017-07-10T04:44:10.315Z,65
2017-07-10T04:45:10.690Z,65
2017-07-10T04:46:10.620Z,65
2017-07-10T04:47:11.017Z,65
2017-07-10T04:48:10.912Z,60
2017-07-10T04:49:11.194Z,50
2017-07-10T04:50:11.253Z,45
2017-07-10T04:51:11.022Z,45
2017-07-10T04:52:10.633Z,40
2017-07-10T04:53:10.286Z,40
2017-07-10T04:54:10.912Z,35
2017-07-10T04:55:11.256Z,30
2017-07-10T04:56:10.983Z,30
2017-07-10T04:57:10.582Z,30
2017-07-10T04:58:11.281Z,30
2017-07-10T04:59:10.602Z,30
2017-07-10T05:00:10.635Z,35
2017-07-10T05:01:10.550Z,40
2017-07-10T05:02:11.236Z,45
2017-07-10T05:03:10.702Z,55
2017-07-10T05:04:10.612Z,65
2017-07-10T05:05:11.051Z,75
2017-07-10T05:06:10.887Z,85
2017-07-10T05:07:10.554Z,90
2017-07-10T05:08:10.918Z,105
2017-07-10T05:09:10.246Z,110
2017-07-10T05:10:10.611Z,120
2017-07-10T05:11:11.024Z,125
2017-07-10T05:12:10.945Z,130
2017-07-10T05:13:10.290Z,135
2017-07-10T05:14:10.564Z,120
2017-07-10T05:15:10.249Z,100
2017-07-10T05:16:10.294Z,85
2017-07-10T05:17:10.963Z,75
2017-07-10T05:18:11.241Z,75
2017-07-10T05:19:10.243Z,70
2017-07-10T05:20:11.508Z,75
2017-07-10T05:21:10.413Z,80
2017-07-10T05:22:10.211Z,95
2017-07-10T05:23:10.659Z,110
2017-07-10T05:24:10.279Z,115
2017-07-10T05:25:10.638Z,115
2017-07-10T05:26:10.357Z,115
2017-07-10T05:27:11.581Z,110
2017-07-10T05:28:10.896Z,100
2017-07-10T05:29:10.648Z,85
2017-07-10T05:30:10.323Z,90
2017-07-10T05:31:10.552Z,80
2017-07-10T05:32:10.964Z,65
2017-07-10T05:33:11.319Z,50
2017-07-10T05:34:11.194Z,40
2017-07-10T05:35:10.221Z,30
2017-07-10T05:36:10.643Z,15
2017-07-10T05:37:10.551Z,15
2017-07-10T05:38:10.525Z,15
2017-07-10T05:39:10.592Z,25
2017-07-10T05:40:11.468Z,30
2017-07-10T05:41:10.575Z,50
2017-07-10T05:42:10.586Z,55
2017-07-10T05:43:10.603Z,55
2017-07-10T05:44:10.554Z,35
2017-07-10T05:45:10.581Z,30
2017-07-10T05:46:11.004Z,30
2017-07-10T05:47:10.634Z,25
2017-07-10T05:48:10.876Z,30
2017-07-10T05:49:10.940Z,30
2017-07-10T05:50:10.508Z,30
2017-07-10T05:51:10.937Z,30
2017-07-10T05:52:10.621Z,25
2017-07-10T05:53:10.601Z,25
2017-07-10T05:54:10.517Z,20
2017-07-10T05:55:10.583Z,20
2017-07-10T05:56:11.059Z,15
2017-07-10T05:57:10.608Z,15
2017-07-10T05:58:10.864Z,15
2017-07-10T05:59:10.686Z,15
2017-07-10T06:00:10.516Z,15
2017-07-10T06:01:10.832Z,15
2017-07-10T06:02:10.160Z,15
2017-07-10T06:03:10.888Z,15
2017-07-10T06:04:10.883Z,10
2017-07-10T06:05:10.635Z,10
2017-07-10T06:06:10.606Z,10
2017-07-10T06:07:10.176Z,15
2017-07-10T06:08:10.236Z,15
2017-07-10T06:09:10.211Z,15
2017-07-10T06:10:11.073Z,15
2017-07-10T06:11:10.544Z,15
2017-07-10T06:12:10.922Z,15
2017-07-10T06:13:10.978Z,20
2017-07-10T06:14:10.292Z,20
2017-07-10T06:15:10.786Z,20
2017-07-10T06:16:10.163Z,20
2017-07-10T06:17:10.641Z,25
2017-07-10T06:18:11.133Z,25
2017-07-10T06:19:10.511Z,25
2017-07-10T06:20:10.959Z,25
2017-07-10T06:21:10.807Z,25
2017-07-10T06:22:10.766Z,25
2017-07-10T06:23:11.464Z,25
2017-07-10T06:24:10.713Z,25
2017-07-10T06:25:10.826Z,25
2017-07-10T06:26:11.132Z,30
2017-07-10T06:27:10.132Z,30
2017-07-10T06:28:11.144Z,30
2017-07-10T06:29:10.447Z,30
2017-07-10T06:30:11.229Z,30
2017-07-10T06:31:10.862Z,30
2017-07-10T06:32:11.038Z,35
2017-07-10T06:33:10.824Z,45
2017-07-10T06:34:10.257Z,55
2017-07-10T06:35:10.833Z,60
2017-07-10T06:36:10.222Z,60
2017-07-10T06:37:10.434Z,65
2017-07-10T06:38:10.878Z,70
2017-07-10T06:39:10.107Z,65
2017-07-10T06:40:10.449Z,65
2017-07-10T06:41:10.834Z,70
2017-07-10T06:42:10.808Z,70
2017-07-10T06:43:10.752Z,75
2017-07-10T06:44:10.838Z,85
2017-07-10T06:45:10.760Z,90
2017-07-10T06:46:10.413Z,100
2017-07-10T06:47:11.431Z,105
2017-07-10T06:48:10.519Z,115
2017-07-10T06:49:11.088Z,120
2017-07-10T06:50:10.833Z,125
2017-07-10T06:51:10.748Z,130
2017-07-10T06:52:10.819Z,135
2017-07-10T06:53:10.163Z,140
2017-07-10T06:54:10.349Z,145
2017-07-10T06:55:10.158Z,150
2017-07-10T06:56:10.705Z,150
2017-07-10T06:57:10.097Z,160
2017-07-10T06:58:10.728Z,165
2017-07-10T06:59:10.331Z,175
2017-07-10T07:00:10.665Z,185
2017-07-10T07:01:10.500Z,200
2017-07-10T07:02:10.707Z,210
2017-07-10T07:03:10.749Z,220
2017-07-10T07:04:10.376Z,230
2017-07-10T07:05:10.071Z,245
2017-07-10T07:06:10.284Z,255
2017-07-10T07:07:10.384Z,270
2017-07-10T07:08:10.585Z,280
2017-07-10T07:09:10.679Z,290
2017-07-10T07:10:10.083Z,295
2017-07-10T07:11:10.387Z,300
2017-07-10T07:12:10.439Z,315
2017-07-10T07:13:10.533Z,315
2017-07-10T07:14:10.009Z,325
2017-07-10T07:15:10.503Z,330
2017-07-10T07:16:10.752Z,335
2017-07-10T07:17:10.511Z,340
2017-07-10T07:18:10.751Z,345
2017-07-10T07:19:10.364Z,345
2017-07-10T07:20:10.439Z,350
2017-07-10T07:21:10.918Z,350
2017-07-10T07:22:09.996Z,350
2017-07-10T07:23:10.750Z,350
2017-07-10T07:24:10.116Z,355
2017-07-10T07:25:10.418Z,360
2017-07-10T07:26:10.330Z,370
2017-07-10T07:27:10.727Z,380
2017-07-10T07:28:10.660Z,390
2017-07-10T07:29:10.385Z,400
2017-07-10T07:30:10.081Z,405
2017-07-10T07:31:10.364Z,415
2017-07-10T07:32:10.366Z,425
2017-07-10T07:33:10.052Z,435
2017-07-10T07:34:10.066Z,440
2017-07-10T07:35:10.434Z,445
2017-07-10T07:36:10.046Z,450
2017-07-10T07:37:10.283Z,465
2017-07-10T07:38:10.781Z,465
2017-07-10T07:39:10.723Z,480
2017-07-10T07:40:10.105Z,485
2017-07-10T07:41:10.843Z,495
2017-07-10T07:42:10.978Z,495
2017-07-10T07:43:10.182Z,485
2017-07-10T07:44:10.721Z,495
2017-07-10T07:45:10.742Z,500
2017-07-10T07:46:10.389Z,525
2017-07-10T07:47:10.655Z,550
2017-07-10T07:48:09.975Z,620
2017-07-10T07:49:10.699Z,640
2017-07-10T07:50:11.057Z,650
2017-07-10T07:51:11.044Z,650
2017-07-10T07:52:11.122Z,655
2017-07-10T07:53:10.389Z,625
2017-07-10T07:54:10.667Z,560
2017-07-10T07:55:10.346Z,470
2017-07-10T07:56:10.768Z,430
2017-07-10T07:57:11.314Z,405
2017-07-10T07:58:11.074Z,385
2017-07-10T07:59:10.374Z,375
2017-07-10T08:00:10.080Z,365
2017-07-10T08:01:10.383Z,345
2017-07-10T08:02:10.651Z,345
2017-07-10T08:03:10.738Z,360
2017-07-10T08:04:10.718Z,370
2017-07-10T08:05:10.058Z,380
2017-07-10T08:06:10.445Z,410
2017-07-10T08:07:10.466Z,450
2017-07-10T08:08:10.383Z,500
2017-07-10T08:09:10.909Z,515
2017-07-10T08:10:10.548Z,530
2017-07-10T08:11:10.125Z,520
2017-07-10T08:12:10.785Z,500
2017-07-10T08:13:10.854Z,445
2017-07-10T08:14:10.895Z,380
2017-07-10T08:15:10.210Z,355
2017-07-10T08:16:10.780Z,320
2017-07-10T08:17:10.791Z,300
2017-07-10T08:18:10.845Z,275
2017-07-10T08:19:10.502Z,260
2017-07-10T08:20:10.453Z,250
2017-07-10T08:21:10.249Z,245
2017-07-10T08:22:10.530Z,245
2017-07-10T08:23:11.218Z,235
2017-07-10T08:24:10.433Z,235
2017-07-10T08:25:10.204Z,235
2017-07-10T08:26:10.513Z,235
2017-07-10T08:27:10.775Z,235
2017-07-10T08:28:11.236Z,230
2017-07-10T08:29:10.861Z,225
2017-07-10T08:30:10.571Z,225
2017-07-10T08:31:10.160Z,235
2017-07-10T08:32:10.899Z,240
2017-07-10T08:33:10.636Z,250
2017-07-10T08:34:10.541Z,245
2017-07-10T08:35:10.344Z,245
2017-07-10T08:36:10.557Z,230
2017-07-10T08:37:10.616Z,240
2017-07-10T08:38:10.193Z,225
2017-07-10T08:39:11.095Z,230
2017-07-10T08:40:10.165Z,235
2017-07-10T08:41:10.631Z,250
2017-07-10T08:42:10.574Z,275
2017-07-10T08:43:10.345Z,295
2017-07-10T08:44:10.186Z,320
2017-07-10T08:45:10.775Z,355
2017-07-10T08:46:11.179Z,385
2017-07-10T08:47:10.580Z,400
2017-07-10T08:48:10.612Z,425
2017-07-10T08:49:11.047Z,440
2017-07-10T08:50:10.676Z,465
2017-07-10T08:51:10.998Z,490
2017-07-10T08:52:10.611Z,460
2017-07-10T08:53:10.750Z,425
2017-07-10T08:54:10.432Z,420
2017-07-10T08:55:11.004Z,455
2017-07-10T08:56:11.299Z,500
2017-07-10T08:57:11.032Z,530
2017-07-10T08:58:10.644Z,555
2017-07-10T08:59:10.423Z,585
2017-07-10T09:00:10.722Z,600
2017-07-10T09:01:11.062Z,595
2017-07-10T09:02:11.000Z,600
2017-07-10T09:03:11.144Z,600
2017-07-10T09:04:11.430Z,620
2017-07-10T09:05:10.729Z,645
2017-07-10T09:06:10.700Z,625
2017-07-10T09:07:11.259Z,585
2017-07-10T09:08:10.354Z,535
2017-07-10T09:09:11.027Z,520
2017-07-10T09:10:11.359Z,495
2017-07-10T09:11:10.735Z,480
2017-07-10T09:12:11.005Z,400
2017-07-10T09:13:10.684Z,335
2017-07-10T09:14:10.971Z,265
2017-07-10T09:15:11.150Z,305
2017-07-10T09:16:10.703Z,340
2017-07-10T09:17:10.733Z,420
2017-07-10T09:18:10.770Z,405
2017-07-10T09:19:11.076Z,410
2017-07-10T09:20:10.678Z,405
2017-07-10T09:21:10.802Z,405
2017-07-10T09:22:10.386Z,415
2017-07-10T09:23:10.472Z,405
2017-07-10T09:24:10.389Z,460
2017-07-10T09:25:10.699Z,480
2017-07-10T09:26:11.314Z,480
2017-07-10T09:27:10.715Z,480
2017-07-10T09:28:11.534Z,505
2017-07-10T09:29:10.789Z,530
2017-07-10T09:30:10.833Z,555
2017-07-10T09:31:10.792Z,570
2017-07-10T09:32:11.125Z,590
2017-07-10T09:33:10.766Z,585
2017-07-10T09:34:11.155Z,565
2017-07-10T09:35:10.774Z,550
2017-07-10T09:36:10.807Z,535
2017-07-10T09:37:11.084Z,525
2017-07-10T09:38:11.124Z,525
2017-07-10T09:39:11.140Z,525
2017-07-10T09:40:11.538Z,540
2017-07-10T09:41:11.149Z,555
2017-07-10T09:42:11.290Z,550
2017-07-10T09:43:10.878Z,540
2017-07-10T09:44:11.206Z,515
2017-07-10T09:45:11.213Z,500
2017-07-10T09:46:11.162Z,535
2017-07-10T09:47:11.164Z,550
2017-07-10T09:48:10.490Z,540
2017-07-10T09:49:10.825Z,510
2017-07-10T09:50:11.227Z,470
2017-07-10T09:51:10.924Z,445
2017-07-10T09:52:10.784Z,440
2017-07-10T09:53:11.504Z,405
2017-07-10T09:54:10.917Z,375
2017-07-10T09:55:11.451Z,315
2017-07-10T09:56:11.224Z,265
2017-07-10T09:57:10.830Z,265
2017-07-10T09:58:10.935Z,285
2017-07-10T09:59:10.703Z,310
2017-07-10T10:00:11.432Z,310
2017-07-10T10:01:10.883Z,320
2017-07-10T10:02:11.200Z,355
2017-07-10T10:03:11.477Z,350
2017-07-10T10:04:11.229Z,345
2017-07-10T10:05:10.566Z,325
2017-07-10T10:06:10.548Z,330
2017-07-10T10:07:11.607Z,340
2017-07-10T10:08:10.871Z,355
2017-07-10T10:09:11.291Z,350
2017-07-10T10:10:10.897Z,370
2017-07-10T10:11:10.965Z,390
2017-07-10T10:12:10.977Z,365
2017-07-10T10:13:10.635Z,360
2017-07-10T10:14:10.907Z,360
2017-07-10T10:15:11.309Z,365
2017-07-10T10:16:10.968Z,380
2017-07-10T10:17:11.262Z,390
2017-07-10T10:18:11.012Z,495
2017-07-10T10:19:10.886Z,510
2017-07-10T10:20:11.319Z,495
2017-07-10T10:21:10.922Z,460
2017-07-10T10:22:11.404Z,395
2017-07-10T10:23:11.082Z,370
2017-07-10T10:24:10.978Z,365
2017-07-10T10:25:11.043Z,390
2017-07-10T10:26:11.349Z,435
2017-07-10T10:27:10.660Z,440
2017-07-10T10:28:11.642Z,445
2017-07-10T10:29:10.985Z,475
2017-07-10T10:30:11.272Z,515
2017-07-10T10:31:11.308Z,540
2017-07-10T10:32:11.059Z,570
2017-07-10T10:33:10.640Z,570
2017-07-10T10:34:11.141Z,565
2017-07-10T10:35:11.071Z,570
2017-07-10T10:36:11.131Z,575
2017-07-10T10:37:11.456Z,575
2017-07-10T10:38:10.952Z,550
2017-07-10T10:39:10.701Z,505
2017-07-10T10:40:11.402Z,455
2017-07-10T10:41:10.705Z,450
2017-07-10T10:42:10.731Z,430
2017-07-10T10:43:11.715Z,420
2017-07-10T10:44:11.051Z,430
2017-07-10T10:45:11.118Z,445
2017-07-10T10:46:11.716Z,470
2017-07-10T10:47:11.475Z,545
2017-07-10T10:48:10.746Z,565
2017-07-10T10:49:11.088Z,570
2017-07-10T10:50:11.051Z,585
2017-07-10T10:51:11.737Z,620
2017-07-10T10:52:11.696Z,640
2017-07-10T10:53:11.870Z,605
2017-07-10T10:54:10.813Z,560
2017-07-10T10:55:11.221Z,510
2017-07-10T10:56:11.409Z,490
2017-07-10T10:57:11.476Z,505
2017-07-10T10:58:11.816Z,495
2017-07-10T10:59:11.846Z,505
2017-07-10T11:00:11.145Z,525
2017-07-10T11:01:11.431Z,560
2017-07-10T11:02:10.805Z,605
2017-07-10T11:03:11.175Z,630
2017-07-10T11:04:11.932Z,635
2017-07-10T11:05:11.544Z,625
2017-07-10T11:06:10.745Z,610
2017-07-10T11:07:11.207Z,595
2017-07-10T11:08:11.063Z,565
2017-07-10T11:09:11.103Z,550
2017-07-10T11:10:11.144Z,530
2017-07-10T11:11:11.248Z,515
2017-07-10T11:12:10.772Z,475
2017-07-10T11:13:11.182Z,435
2017-07-10T11:14:11.286Z,410
2017-07-10T11:15:11.184Z,400
2017-07-10T11:16:11.189Z,385
2017-07-10T11:17:11.556Z,375
2017-07-10T11:18:11.525Z,345
2017-07-10T11:19:11.589Z,305
2017-07-10T11:20:11.478Z,260
2017-07-10T11:21:11.215Z,225
2017-07-10T11:22:11.374Z,200
2017-07-10T11:23:11.212Z,190
2017-07-10T11:24:10.914Z,185
2017-07-10T11:25:11.212Z,185
2017-07-10T11:26:11.599Z,180
2017-07-10T11:27:11.531Z,175
2017-07-10T11:28:11.697Z,170
2017-07-10T11:29:11.204Z,170
2017-07-10T11:30:11.563Z,170
2017-07-10T11:31:11.158Z,165
2017-07-10T11:32:11.217Z,170
2017-07-10T11:33:11.588Z,170
2017-07-10T11:34:11.183Z,170
2017-07-10T11:35:11.246Z,175
2017-07-10T11:36:11.227Z,175
2017-07-10T11:37:10.928Z,195
2017-07-10T11:38:10.830Z,205
2017-07-10T11:39:11.453Z,210
2017-07-10T11:40:11.230Z,195
2017-07-10T11:41:11.316Z,190
2017-07-10T11:42:11.631Z,205
2017-07-10T11:43:11.585Z,200
2017-07-10T11:44:11.632Z,180
2017-07-10T11:45:11.657Z,180
2017-07-10T11:46:11.743Z,180
2017-07-10T11:47:11.117Z,180
2017-07-10T11:48:11.691Z,190
2017-07-10T11:49:10.960Z,190
2017-07-10T11:50:10.938Z,185
2017-07-10T11:51:11.643Z,185
2017-07-10T11:52:11.626Z,195
2017-07-10T11:53:11.653Z,185
2017-07-10T11:54:11.639Z,195
2017-07-10T11:55:11.627Z,195
2017-07-10T11:56:11.326Z,190
2017-07-10T11:57:11.427Z,190
2017-07-10T11:58:11.740Z,195
2017-07-10T11:59:11.696Z,185
2017-07-10T12:00:11.462Z,210
2017-07-10T12:01:11.104Z,210
2017-07-10T12:02:11.775Z,215
2017-07-10T12:03:11.683Z,225
2017-07-10T12:04:11.252Z,245
2017-07-10T12:05:11.779Z,245
2017-07-10T12:06:11.038Z,280
2017-07-10T12:07:11.380Z,280
2017-07-10T12:08:11.355Z,270
2017-07-10T12:09:12.191Z,260
2017-07-10T12:10:12.381Z,255
2017-07-10T12:11:11.079Z,235
2017-07-10T12:12:11.693Z,260
2017-07-10T12:13:11.017Z,295
2017-07-10T12:14:11.038Z,265
2017-07-10T12:15:11.753Z,235
2017-07-10T12:16:11.055Z,245
2017-07-10T12:17:11.128Z,245
2017-07-10T12:18:11.405Z,235
2017-07-10T12:19:11.698Z,225
2017-07-10T12:20:11.074Z,230
2017-07-10T12:21:11.732Z,230
2017-07-10T12:22:11.769Z,240
2017-07-10T12:23:11.453Z,255
2017-07-10T12:24:11.742Z,270
2017-07-10T12:25:11.388Z,370
2017-07-10T12:26:11.714Z,375
2017-07-10T12:27:11.080Z,385
2017-07-10T12:28:11.753Z,365
2017-07-10T12:29:11.100Z,415
2017-07-10T12:30:11.077Z,360
2017-07-10T12:31:11.095Z,325
2017-07-10T12:32:11.436Z,380
2017-07-10T12:33:11.136Z,450
2017-07-10T12:34:11.722Z,465
2017-07-10T12:35:11.184Z,470
2017-07-10T12:36:11.783Z,490
2017-07-10T12:37:11.732Z,455
2017-07-10T12:38:11.783Z,475
2017-07-10T12:39:11.107Z,510
2017-07-10T12:40:11.258Z,435
2017-07-10T12:41:11.145Z,380
2017-07-10T12:42:11.439Z,345
2017-07-10T12:43:11.815Z,425
2017-07-10T12:44:11.482Z,455
2017-07-10T12:45:11.690Z,465
2017-07-10T12:46:11.486Z,445
2017-07-10T12:47:11.151Z,385
2017-07-10T12:48:11.121Z,360
2017-07-10T12:49:11.504Z,325
2017-07-10T12:50:11.554Z,400
2017-07-10T12:51:12.221Z,605
2017-07-10T12:52:11.223Z,575
2017-07-10T12:53:11.568Z,520
2017-07-10T12:54:11.906Z,480
2017-07-10T12:55:11.773Z,475
2017-07-10T12:56:11.898Z,435
2017-07-10T12:57:12.317Z,415
2017-07-10T12:58:11.911Z,370
2017-07-10T12:59:11.959Z,370
2017-07-10T13:00:11.828Z,360
2017-07-10T13:01:11.903Z,295
2017-07-10T13:02:11.981Z,320
2017-07-10T13:03:12.242Z,340
2017-07-10T13:04:11.901Z,320
2017-07-10T13:05:11.756Z,305
2017-07-10T13:06:11.193Z,340
2017-07-10T13:07:11.569Z,395
2017-07-10T13:08:11.999Z,385
2017-07-10T13:09:11.729Z,375
2017-07-10T13:10:11.923Z,350
2017-07-10T13:11:11.565Z,300
2017-07-10T13:12:11.947Z,260
2017-07-10T13:13:11.655Z,250
2017-07-10T13:14:11.694Z,235
2017-07-10T13:15:11.393Z,205
2017-07-10T13:16:11.345Z,170
2017-07-10T13:17:11.569Z,145
2017-07-10T13:18:11.584Z,120
2017-07-10T13:19:11.361Z,100
2017-07-10T13:20:11.629Z,100
2017-07-10T13:21:11.956Z,110
2017-07-10T13:22:11.293Z,120
2017-07-10T13:23:12.184Z,135
2017-07-10T13:24:12.035Z,150
2017-07-10T13:25:11.805Z,160
2017-07-10T13:26:11.344Z,170
2017-07-10T13:27:12.017Z,175
2017-07-10T13:28:12.130Z,185
2017-07-10T13:29:11.353Z,200
2017-07-10T13:30:12.396Z,225
2017-07-10T13:31:11.781Z,230
2017-07-10T13:32:11.758Z,210
2017-07-10T13:33:12.390Z,165
2017-07-10T13:34:11.384Z,125
2017-07-10T13:35:11.753Z,85
2017-07-10T13:36:11.733Z,70
2017-07-10T13:37:12.352Z,60
2017-07-10T13:38:11.725Z,60
2017-07-10T13:39:11.372Z,70
2017-07-10T13:40:11.412Z,80
2017-07-10T13:41:12.104Z,85
2017-07-10T13:42:12.485Z,70
2017-07-10T13:43:12.051Z,55
2017-07-10T13:44:12.171Z,45
2017-07-10T13:45:11.789Z,60
2017-07-10T13:46:11.710Z,80
2017-07-10T13:47:11.394Z,105
2017-07-10T13:48:12.367Z,115
2017-07-10T13:49:11.734Z,140
2017-07-10T13:50:12.130Z,155
2017-07-10T13:51:11.835Z,175
2017-07-10T13:52:12.127Z,190
2017-07-10T13:53:11.859Z,210
2017-07-10T13:54:12.152Z,210
2017-07-10T13:55:11.469Z,210
2017-07-10T13:56:11.454Z,205
2017-07-10T13:57:12.165Z,215
2017-07-10T13:58:12.122Z,220
2017-07-10T13:59:12.073Z,240
2017-07-10T14:00:12.150Z,280
2017-07-10T14:01:11.537Z,330
2017-07-10T14:02:11.782Z,365
2017-07-10T14:03:11.819Z,385
2017-07-10T14:04:11.492Z,370
2017-07-10T14:05:11.827Z,355
2017-07-10T14:06:11.925Z,365
2017-07-10T14:07:12.125Z,390